Time,TemperatureF,DewpointF,PressureIn,WindDirection,WindDirectionDegrees,WindSpeedMPH,WindSpeedGustMPH,Humidity,HourlyPrecipIn,Conditions,Clouds,dailyrainin,SolarRadiationWatts/m^2,SoftwareType,DateUTC
2013-09-10 00:00:00,80.0,73.7,30.01,West,269,0.0,2.0,81,0.00,,---,0.00,0.00,VWS V14.00,2013-09-10 04:00:00,
2013-09-10 00:30:00,79.9,73.9,30.01,West,269,0.0,1.0,82,0.00,,---,0.00,0.00,VWS V14.00,2013-09-10 04:30:00,
2013-09-10 01:00:00,79.6,73.6,30.00,West,269,0.0,1.0,82,0.00,,---,0.00,0.00,VWS V14.00,2013-09-10 05:00:00,
2013-09-10 01:30:00,79.2,73.6,30.00,West,269,0.0,0.0,83,0.00,,---,0.00,0.00,VWS V14.00,2013-09-10 05:30:00,
2013-09-10 02:00:00,78.7,73.1,30.00,West,269,0.0,0.0,83,0.00,,---,0.00,0.00,VWS V14.00,2013-09-10 06:00:00,
2013-09-10 02:30:00,78.7,73.1,29.99,West,269,0.0,0.0,83,0.00,,---,0.00,0.00,VWS V14.00,2013-09-10 06:30:00,
2013-09-10 03:00:00,78.8,72.8,30.00,West,269,0.0,1.0,82,0.00,,---,0.00,0.00,VWS V14.00,2013-09-10 07:00:00,
2013-09-10 03:30:00,78.7,73.1,29.99,West,269,0.0,0.0,83,0.00,,---,0.00,0.00,VWS V14.00,2013-09-10 07:30:00,
2013-09-10 04:00:00,79.1,73.1,29.98,West,269,0.0,1.0,82,0.00,,---,0.00,0.00,VWS V14.00,2013-09-10 08:00:00,
2013-09-10 04:30:00,79.2,72.9,29.98,West,269,0.0,1.0,81,0.00,,---,0.00,0.00,VWS V14.00,2013-09-10 08:30:00,
2013-09-10 05:00:00,79.1,72.4,29.99,West,269,0.0,1.0,80,0.00,,---,0.00,0.00,VWS V14.00,2013-09-10 09:00:00,
2013-09-10 05:30:00,78.7,71.6,29.99,West,269,0.0,1.0,79,0.00,,---,0.00,0.00,VWS V14.00,2013-09-10 09:30:00,
2013-09-10 06:00:00,78.7,71.6,30.00,West,269,0.0,1.0,79,0.00,,---,0.00,0.00,VWS V14.00,2013-09-10 10:00:00,
2013-09-10 06:30:00,78.7,71.3,30.00,West,269,0.0,2.0,78,0.00,,---,0.00,0.00,VWS V14.00,2013-09-10 10:30:00,
2013-09-10 07:00:00,78.7,71.6,30.01,West,269,0.0,1.0,79,0.00,,---,0.00,0.00,VWS V14.00,2013-09-10 11:00:00,
2013-09-10 07:30:00,78.7,72.0,30.02,West,269,0.0,2.0,80,0.00,,---,0.00,23.00,VWS V14.00,2013-09-10 11:30:00,
2013-09-10 08:00:00,80.1,72.6,30.03,West,269,0.0,2.0,78,0.00,,---,0.00,127.00,VWS V14.00,2013-09-10 12:00:00,
2013-09-10 08:30:00,81.8,73.1,30.04,West,268,0.0,2.0,75,0.00,,---,0.00,230.00,VWS V14.00,2013-09-10 12:30:00,
2013-09-10 09:00:00,83.1,73.6,30.05,West,270,0.0,6.0,73,0.00,,---,0.00,336.00,VWS V14.00,2013-09-10 13:00:00,
2013-09-10 09:30:00,83.9,73.5,30.06,WSW,252,0.0,9.0,71,0.00,,---,0.00,439.00,VWS V14.00,2013-09-10 13:30:00,
2013-09-10 10:00:00,84.9,73.6,30.07,West,267,8.0,8.0,69,0.00,,---,0.00,543.00,VWS V14.00,2013-09-10 14:00:00,
2013-09-10 10:30:00,85.3,73.6,30.07,WSW,249,0.0,8.0,68,0.00,,---,0.00,626.00,VWS V14.00,2013-09-10 14:30:00,
2013-09-10 11:00:00,86.3,74.1,30.07,West,263,1.0,6.0,67,0.00,,---,0.00,712.00,VWS V14.00,2013-09-10 15:00:00,
2013-09-10 11:30:00,87.1,73.9,30.08,West,274,0.0,9.0,65,0.00,,---,0.00,784.00,VWS V14.00,2013-09-10 15:30:00,
2013-09-10 12:00:00,87.3,75.4,30.07,West,279,2.0,11.0,68,0.00,,---,0.00,879.00,VWS V14.00,2013-09-10 16:00:00,
2013-09-10 12:30:00,86.6,75.2,30.06,SSE,151,0.0,10.0,69,0.00,,---,0.00,907.00,VWS V14.00,2013-09-10 16:30:00,
2013-09-10 13:00:00,87.1,74.8,30.06,West,271,0.0,11.0,67,0.00,,---,0.00,1007.00,VWS V14.00,2013-09-10 17:00:00,
2013-09-10 13:30:00,87.6,75.3,30.05,WNW,283,2.0,11.0,67,0.00,,---,0.00,302.00,VWS V14.00,2013-09-10 17:30:00,
2013-09-10 14:00:00,86.7,75.3,30.05,NE,52,0.0,11.0,69,0.00,,---,0.00,1069.00,VWS V14.00,2013-09-10 18:00:00,
2013-09-10 14:30:00,85.4,75.3,30.04,West,275,0.0,14.0,72,0.00,,---,0.00,334.00,VWS V14.00,2013-09-10 18:30:00,
2013-09-10 15:00:00,86.7,74.4,30.03,South,174,8.0,15.0,67,0.00,,---,0.00,199.00,VWS V14.00,2013-09-10 19:00:00,
2013-09-10 15:30:00,85.1,76.7,30.03,WNW,297,7.0,9.0,76,0.00,,---,0.00,211.00,VWS V14.00,2013-09-10 19:30:00,
2013-09-10 16:00:00,85.1,75.9,30.02,NW,319,2.0,11.0,74,0.00,,---,0.00,202.00,VWS V14.00,2013-09-10 20:00:00,
2013-09-10 16:30:00,84.8,76.4,30.02,WNW,296,0.0,12.0,76,0.00,,---,0.00,751.00,VWS V14.00,2013-09-10 20:30:00,
2013-09-10 17:00:00,85.0,75.8,30.02,NNW,330,1.0,9.0,74,0.00,,---,0.00,232.00,VWS V14.00,2013-09-10 21:00:00,
2013-09-10 17:30:00,84.4,76.0,30.01,WNW,284,0.0,4.0,76,0.00,,---,0.00,504.00,VWS V14.00,2013-09-10 21:30:00,
2013-09-10 18:00:00,81.3,76.4,30.02,NW,308,0.0,12.0,85,0.04,,---,0.03,183.00,VWS V14.00,2013-09-10 22:00:00,
2013-09-10 18:30:00,80.2,73.8,30.03,West,269,0.0,7.0,81,0.00,,---,0.03,69.00,VWS V14.00,2013-09-10 22:30:00,
2013-09-10 19:00:00,79.5,73.2,30.02,NW,318,0.0,9.0,81,0.00,,---,0.03,28.00,VWS V14.00,2013-09-10 23:00:00,
2013-09-10 19:30:00,78.7,72.8,30.04,NW,315,0.0,3.0,82,0.00,,---,0.03,7.00,VWS V14.00,2013-09-10 23:30:00,
2013-09-10 20:00:00,78.7,73.1,30.03,NW,315,0.0,1.0,83,0.00,,---,0.03,0.00,VWS V14.00,2013-09-11 00:00:00,
2013-09-10 20:30:00,78.8,72.8,30.04,North,349,0.0,6.0,82,0.00,,---,0.03,0.00,VWS V14.00,2013-09-11 00:30:00,
2013-09-10 21:00:00,78.7,71.6,30.05,NNW,330,0.0,2.0,79,0.00,,---,0.03,0.00,VWS V14.00,2013-09-11 01:00:00,
2013-09-10 21:30:00,78.7,72.4,30.05,NNW,330,0.0,0.0,81,0.00,,---,0.03,0.00,VWS V14.00,2013-09-11 01:30:00,
2013-09-10 22:00:00,79.0,71.6,30.05,NW,321,0.0,3.0,78,0.00,,---,0.03,0.00,VWS V14.00,2013-09-11 02:00:00,
2013-09-10 22:30:00,78.5,70.7,30.06,NW,321,0.0,2.0,77,0.00,,---,0.03,0.00,VWS V14.00,2013-09-11 02:30:00,
2013-09-10 23:00:00,75.8,70.3,30.06,NW,319,0.0,10.0,83,0.00,,---,0.04,0.00,VWS V14.00,2013-09-11 03:00:00,
2013-09-10 23:30:00,75.8,71.0,30.06,NW,316,0.0,4.0,85,0.00,,---,0.04,0.00,VWS V14.00,2013-09-11 03:30:00,